Miami, Florida
Traffic Map
Current Weather Conditions
Miami, Florida
Broken Clouds
Broken Clouds
25°
Feels Like: 26°
Wind Chill: 25° Ceiling: 5000
Heat Index: 26° Visibility: 10mi
Dew Point: 17° Wind: 10mph
Humidity: 60% Direction: 130° (SE)
Pressure: 30.12in Gusts: 0mph
Raw Report DataKMIA 201653Z COR 13009KT 10SM SCT038 BKN050 25/17 A3012 RMK AO2 SLP200 T02500167
Traffic Incident Summary
Active as of:
Severity:
Category:
InformationThere was an issue retrieving the traffic information for this location. Please try a different location or try again shortly.
Advertisements
Track Severe Weather on mobile